sensor_id;sensor_type;location;lat;lon;timestamp;temperature;humidity
29281;DHT22;25048;49.590;11.026;2023-07-20T00:00:52;17.40;99.90
29281;DHT22;25048;49.590;11.026;2023-07-20T00:03:20;17.40;99.90
29281;DHT22;25048;49.590;11.026;2023-07-20T00:05:49;17.40;99.90
29281;DHT22;25048;49.590;11.026;2023-07-20T00:08:18;17.30;99.90
29281;DHT22;25048;49.590;11.026;2023-07-20T00:10:45;17.30;99.90
29281;DHT22;25048;49.590;11.026;2023-07-20T00:13:13;17.20;99.90
29281;DHT22;25048;49.590;11.026;2023-07-20T00:15:42;17.20;99.90
29281;DHT22;25048;49.590;11.026;2023-07-20T00:18:10;17.10;99.90
29281;DHT22;25048;49.590;11.026;2023-07-20T00:20:37;17.10;99.90
29281;DHT22;25048;49.590;11.026;2023-07-20T00:23:05;17.00;99.90
29281;DHT22;25048;49.590;11.026;2023-07-20T00:25:32;17.00;99.90
29281;DHT22;25048;49.590;11.026;2023-07-20T00:28:01;17.00;99.90
29281;DHT22;25048;49.590;11.026;2023-07-20T00:30:29;16.90;99.90
29281;DHT22;25048;49.590;11.026;2023-07-20T00:32:56;16.90;99.90
29281;DHT22;25048;49.590;11.026;2023-07-20T00:35:24;16.90;99.90
29281;DHT22;25048;49.590;11.026;2023-07-20T00:37:51;16.90;99.90
29281;DHT22;25048;49.590;11.026;2023-07-20T00:40:19;16.90;99.90
29281;DHT22;25048;49.590;11.026;2023-07-20T00:42:47;16.80;99.90
29281;DHT22;25048;49.590;11.026;2023-07-20T00:45:14;16.70;99.90
29281;DHT22;25048;49.590;11.026;2023-07-20T00:47:42;16.70;99.90
29281;DHT22;25048;49.590;11.026;2023-07-20T00:50:10;16.60;99.90
29281;DHT22;25048;49.590;11.026;2023-07-20T00:52:38;16.60;99.90
29281;DHT22;25048;49.590;11.026;2023-07-20T00:55:07;16.60;99.90
29281;DHT22;25048;49.590;11.026;2023-07-20T00:57:36;16.50;99.90
29281;DHT22;25048;49.590;11.026;2023-07-20T01:00:04;16.60;99.90
29281;DHT22;25048;49.590;11.026;2023-07-20T01:02:33;16.60;99.90
29281;DHT22;25048;49.590;11.026;2023-07-20T01:05:01;16.60;99.90
29281;DHT22;25048;49.590;11.026;2023-07-20T01:07:37;16.50;99.90
29281;DHT22;25048;49.590;11.026;2023-07-20T01:12:41;16.50;99.90
29281;DHT22;25048;49.590;11.026;2023-07-20T01:15:09;16.50;99.90
29281;DHT22;25048;49.590;11.026;2023-07-20T01:17:38;16.50;99.90
29281;DHT22;25048;49.590;11.026;2023-07-20T01:20:08;16.50;99.90
29281;DHT22;25048;49.590;11.026;2023-07-20T01:23:01;16.40;99.90
29281;DHT22;25048;49.590;11.026;2023-07-20T01:25:34;16.40;99.90
29281;DHT22;25048;49.590;11.026;2023-07-20T01:31:12;16.40;99.90
29281;DHT22;25048;49.590;11.026;2023-07-20T01:33:36;16.30;99.90
29281;DHT22;25048;49.590;11.026;2023-07-20T01:36:05;16.30;99.90
29281;DHT22;25048;49.590;11.026;2023-07-20T01:38:34;16.20;99.90
29281;DHT22;25048;49.590;11.026;2023-07-20T01:41:03;16.20;99.90
29281;DHT22;25048;49.590;11.026;2023-07-20T01:43:31;16.20;99.90
29281;DHT22;25048;49.590;11.026;2023-07-20T01:45:59;16.20;99.90
29281;DHT22;25048;49.590;11.026;2023-07-20T01:48:26;16.30;99.90
29281;DHT22;25048;49.590;11.026;2023-07-20T01:50:54;16.20;99.90
29281;DHT22;25048;49.590;11.026;2023-07-20T01:53:22;16.30;99.90
29281;DHT22;25048;49.590;11.026;2023-07-20T01:55:51;16.30;99.90
29281;DHT22;25048;49.590;11.026;2023-07-20T01:58:18;16.30;99.90
29281;DHT22;25048;49.590;11.026;2023-07-20T02:00:46;16.30;99.90
29281;DHT22;25048;49.590;11.026;2023-07-20T02:03:14;16.40;99.90
29281;DHT22;25048;49.590;11.026;2023-07-20T02:05:44;16.40;99.90
29281;DHT22;25048;49.590;11.026;2023-07-20T02:08:12;16.40;99.90
29281;DHT22;25048;49.590;11.026;2023-07-20T02:10:39;16.40;99.90
29281;DHT22;25048;49.590;11.026;2023-07-20T02:13:07;16.40;99.90
29281;DHT22;25048;49.590;11.026;2023-07-20T02:15:34;16.40;99.90
29281;DHT22;25048;49.590;11.026;2023-07-20T02:18:02;16.50;99.90
29281;DHT22;25048;49.590;11.026;2023-07-20T02:20:29;16.60;99.90
29281;DHT22;25048;49.590;11.026;2023-07-20T02:22:57;16.60;99.90
29281;DHT22;25048;49.590;11.026;2023-07-20T02:25:24;16.70;99.90
29281;DHT22;25048;49.590;11.026;2023-07-20T02:27:52;16.70;99.90
29281;DHT22;25048;49.590;11.026;2023-07-20T02:30:20;16.80;99.90
29281;DHT22;25048;49.590;11.026;2023-07-20T02:32:47;16.90;99.90
29281;DHT22;25048;49.590;11.026;2023-07-20T02:35:15;17.00;99.90
29281;DHT22;25048;49.590;11.026;2023-07-20T02:37:43;17.00;99.90
29281;DHT22;25048;49.590;11.026;2023-07-20T02:40:11;17.00;99.90
29281;DHT22;25048;49.590;11.026;2023-07-20T02:42:38;17.10;99.90
29281;DHT22;25048;49.590;11.026;2023-07-20T02:45:06;17.00;99.90
29281;DHT22;25048;49.590;11.026;2023-07-20T02:47:34;17.00;99.90
29281;DHT22;25048;49.590;11.026;2023-07-20T02:50:02;17.00;99.90
29281;DHT22;25048;49.590;11.026;2023-07-20T02:52:30;17.00;99.90
29281;DHT22;25048;49.590;11.026;2023-07-20T02:54:57;17.00;99.90
29281;DHT22;25048;49.590;11.026;2023-07-20T02:57:25;17.00;99.90
29281;DHT22;25048;49.590;11.026;2023-07-20T02:59:53;17.00;99.90
29281;DHT22;25048;49.590;11.026;2023-07-20T03:02:21;16.90;99.90
29281;DHT22;25048;49.590;11.026;2023-07-20T03:04:49;16.90;99.90
29281;DHT22;25048;49.590;11.026;2023-07-20T03:07:16;16.80;99.90
29281;DHT22;25048;49.590;11.026;2023-07-20T03:09:44;16.70;99.90
29281;DHT22;25048;49.590;11.026;2023-07-20T03:12:11;16.70;99.90
29281;DHT22;25048;49.590;11.026;2023-07-20T03:14:39;16.60;99.90
29281;DHT22;25048;49.590;11.026;2023-07-20T03:17:06;16.60;99.90
29281;DHT22;25048;49.590;11.026;2023-07-20T03:19:35;16.60;99.90
29281;DHT22;25048;49.590;11.026;2023-07-20T03:22:02;16.50;99.90
29281;DHT22;25048;49.590;11.026;2023-07-20T03:24:30;16.50;99.90
29281;DHT22;25048;49.590;11.026;2023-07-20T03:26:57;16.50;99.90
29281;DHT22;25048;49.590;11.026;2023-07-20T03:29:25;16.50;99.90
29281;DHT22;25048;49.590;11.026;2023-07-20T03:31:52;16.50;99.90
29281;DHT22;25048;49.590;11.026;2023-07-20T03:34:20;16.60;99.90
29281;DHT22;25048;49.590;11.026;2023-07-20T03:36:47;16.60;99.90
29281;DHT22;25048;49.590;11.026;2023-07-20T03:39:15;16.60;99.90
29281;DHT22;25048;49.590;11.026;2023-07-20T03:41:42;16.60;99.90
29281;DHT22;25048;49.590;11.026;2023-07-20T03:44:10;16.70;99.90
29281;DHT22;25048;49.590;11.026;2023-07-20T03:46:37;16.70;99.90
29281;DHT22;25048;49.590;11.026;2023-07-20T03:49:05;16.70;99.90
29281;DHT22;25048;49.590;11.026;2023-07-20T03:51:32;16.70;99.90
29281;DHT22;25048;49.590;11.026;2023-07-20T03:54:00;16.70;99.90
29281;DHT22;25048;49.590;11.026;2023-07-20T03:56:27;16.70;99.90
29281;DHT22;25048;49.590;11.026;2023-07-20T03:58:55;16.70;99.90
29281;DHT22;25048;49.590;11.026;2023-07-20T04:01:22;16.70;99.90
29281;DHT22;25048;49.590;11.026;2023-07-20T04:03:50;16.70;99.90
29281;DHT22;25048;49.590;11.026;2023-07-20T04:06:17;16.70;99.90
29281;DHT22;25048;49.590;11.026;2023-07-20T04:08:45;16.70;99.90
29281;DHT22;25048;49.590;11.026;2023-07-20T04:11:13;16.70;99.90
29281;DHT22;25048;49.590;11.026;2023-07-20T04:13:42;16.70;99.90
29281;DHT22;25048;49.590;11.026;2023-07-20T04:16:09;16.80;99.90
29281;DHT22;25048;49.590;11.026;2023-07-20T04:18:37;16.80;99.90
29281;DHT22;25048;49.590;11.026;2023-07-20T04:21:04;16.90;99.90
29281;DHT22;25048;49.590;11.026;2023-07-20T04:23:32;16.90;99.90
29281;DHT22;25048;49.590;11.026;2023-07-20T04:25:59;16.90;99.90
29281;DHT22;25048;49.590;11.026;2023-07-20T04:28:27;16.90;99.90
29281;DHT22;25048;49.590;11.026;2023-07-20T04:30:54;17.00;99.90
29281;DHT22;25048;49.590;11.026;2023-07-20T04:33:22;17.00;99.90
29281;DHT22;25048;49.590;11.026;2023-07-20T04:35:53;17.00;99.90
29281;DHT22;25048;49.590;11.026;2023-07-20T04:38:21;17.00;99.90
29281;DHT22;25048;49.590;11.026;2023-07-20T04:40:50;17.00;99.90
29281;DHT22;25048;49.590;11.026;2023-07-20T04:43:18;17.00;99.90
29281;DHT22;25048;49.590;11.026;2023-07-20T04:45:45;17.10;99.90
29281;DHT22;25048;49.590;11.026;2023-07-20T04:48:14;17.10;99.90
29281;DHT22;25048;49.590;11.026;2023-07-20T04:50:43;17.10;99.90
29281;DHT22;25048;49.590;11.026;2023-07-20T04:53:12;17.20;99.90
29281;DHT22;25048;49.590;11.026;2023-07-20T04:55:40;17.20;99.90
29281;DHT22;25048;49.590;11.026;2023-07-20T04:58:08;17.20;99.90
29281;DHT22;25048;49.590;11.026;2023-07-20T05:00:37;17.20;99.90
29281;DHT22;25048;49.590;11.026;2023-07-20T05:03:05;17.20;99.90
29281;DHT22;25048;49.590;11.026;2023-07-20T05:05:32;17.20;99.90
29281;DHT22;25048;49.590;11.026;2023-07-20T05:08:00;17.30;99.90
29281;DHT22;25048;49.590;11.026;2023-07-20T05:10:28;17.30;99.90
29281;DHT22;25048;49.590;11.026;2023-07-20T05:12:55;17.30;99.90
29281;DHT22;25048;49.590;11.026;2023-07-20T05:15:22;17.30;99.90
29281;DHT22;25048;49.590;11.026;2023-07-20T05:17:51;17.40;99.90
29281;DHT22;25048;49.590;11.026;2023-07-20T05:20:19;17.40;99.90
29281;DHT22;25048;49.590;11.026;2023-07-20T05:22:47;17.50;99.90
29281;DHT22;25048;49.590;11.026;2023-07-20T05:25:14;17.50;99.90
29281;DHT22;25048;49.590;11.026;2023-07-20T05:27:44;17.60;99.90
29281;DHT22;25048;49.590;11.026;2023-07-20T05:30:12;17.60;99.90
29281;DHT22;25048;49.590;11.026;2023-07-20T05:32:40;17.60;99.90
29281;DHT22;25048;49.590;11.026;2023-07-20T05:35:08;17.70;99.90
29281;DHT22;25048;49.590;11.026;2023-07-20T05:37:37;17.70;99.90
29281;DHT22;25048;49.590;11.026;2023-07-20T05:40:06;17.70;99.90
29281;DHT22;25048;49.590;11.026;2023-07-20T05:42:34;17.70;99.90
29281;DHT22;25048;49.590;11.026;2023-07-20T05:45:01;17.70;99.90
29281;DHT22;25048;49.590;11.026;2023-07-20T05:47:29;17.70;99.90
29281;DHT22;25048;49.590;11.026;2023-07-20T05:49:56;17.70;99.90
29281;DHT22;25048;49.590;11.026;2023-07-20T05:52:24;17.90;99.90
29281;DHT22;25048;49.590;11.026;2023-07-20T05:54:51;17.90;99.90
29281;DHT22;25048;49.590;11.026;2023-07-20T05:57:19;17.90;99.90
29281;DHT22;25048;49.590;11.026;2023-07-20T05:59:46;18.10;99.90
29281;DHT22;25048;49.590;11.026;2023-07-20T06:02:14;18.40;99.90
29281;DHT22;25048;49.590;11.026;2023-07-20T06:04:42;18.70;99.90
29281;DHT22;25048;49.590;11.026;2023-07-20T06:07:09;19.00;99.90
29281;DHT22;25048;49.590;11.026;2023-07-20T06:09:37;19.20;99.90
29281;DHT22;25048;49.590;11.026;2023-07-20T06:12:04;19.50;99.90
29281;DHT22;25048;49.590;11.026;2023-07-20T06:14:32;19.70;99.90
29281;DHT22;25048;49.590;11.026;2023-07-20T06:17:00;20.00;99.90
29281;DHT22;25048;49.590;11.026;2023-07-20T06:19:27;20.20;99.90
29281;DHT22;25048;49.590;11.026;2023-07-20T06:21:55;20.40;99.90
29281;DHT22;25048;49.590;11.026;2023-07-20T06:24:22;20.50;99.90
29281;DHT22;25048;49.590;11.026;2023-07-20T06:26:49;20.60;99.90
29281;DHT22;25048;49.590;11.026;2023-07-20T06:29:17;20.70;99.90
29281;DHT22;25048;49.590;11.026;2023-07-20T06:31:45;20.70;99.90
29281;DHT22;25048;49.590;11.026;2023-07-20T06:34:13;20.70;99.90
29281;DHT22;25048;49.590;11.026;2023-07-20T06:36:40;20.80;99.90
29281;DHT22;25048;49.590;11.026;2023-07-20T06:39:08;20.90;99.90
29281;DHT22;25048;49.590;11.026;2023-07-20T06:41:35;20.90;99.90
29281;DHT22;25048;49.590;11.026;2023-07-20T06:44:03;21.00;99.90
29281;DHT22;25048;49.590;11.026;2023-07-20T06:46:31;21.10;99.90
29281;DHT22;25048;49.590;11.026;2023-07-20T06:48:59;21.10;99.90
29281;DHT22;25048;49.590;11.026;2023-07-20T06:51:26;21.10;99.90
29281;DHT22;25048;49.590;11.026;2023-07-20T06:53:54;21.00;99.90
29281;DHT22;25048;49.590;11.026;2023-07-20T06:56:21;21.00;99.90
29281;DHT22;25048;49.590;11.026;2023-07-20T06:58:49;21.10;99.90
29281;DHT22;25048;49.590;11.026;2023-07-20T07:01:16;21.20;99.90
29281;DHT22;25048;49.590;11.026;2023-07-20T07:03:44;21.30;99.90
29281;DHT22;25048;49.590;11.026;2023-07-20T07:06:11;21.30;99.90
29281;DHT22;25048;49.590;11.026;2023-07-20T07:08:39;21.40;99.90
29281;DHT22;25048;49.590;11.026;2023-07-20T07:11:06;21.40;99.90
29281;DHT22;25048;49.590;11.026;2023-07-20T07:13:34;21.50;99.90
29281;DHT22;25048;49.590;11.026;2023-07-20T07:16:01;21.60;99.90
29281;DHT22;25048;49.590;11.026;2023-07-20T07:18:29;21.80;99.90
29281;DHT22;25048;49.590;11.026;2023-07-20T07:20:56;21.80;99.90
29281;DHT22;25048;49.590;11.026;2023-07-20T07:23:24;21.80;99.90
29281;DHT22;25048;49.590;11.026;2023-07-20T07:25:51;21.80;99.90
29281;DHT22;25048;49.590;11.026;2023-07-20T07:28:19;21.90;99.90
29281;DHT22;25048;49.590;11.026;2023-07-20T07:30:46;22.00;99.90
29281;DHT22;25048;49.590;11.026;2023-07-20T07:33:14;22.20;99.90
29281;DHT22;25048;49.590;11.026;2023-07-20T07:35:41;22.20;99.90
29281;DHT22;25048;49.590;11.026;2023-07-20T07:38:09;22.20;99.90
29281;DHT22;25048;49.590;11.026;2023-07-20T07:40:37;22.30;99.90
29281;DHT22;25048;49.590;11.026;2023-07-20T07:43:04;22.40;99.90
29281;DHT22;25048;49.590;11.026;2023-07-20T07:45:34;22.20;99.90
29281;DHT22;25048;49.590;11.026;2023-07-20T07:48:04;22.20;99.90
29281;DHT22;25048;49.590;11.026;2023-07-20T07:50:32;22.20;99.90
29281;DHT22;25048;49.590;11.026;2023-07-20T07:53:00;22.30;99.90
29281;DHT22;25048;49.590;11.026;2023-07-20T07:55:27;22.20;99.90
29281;DHT22;25048;49.590;11.026;2023-07-20T07:57:55;22.10;99.90
29281;DHT22;25048;49.590;11.026;2023-07-20T08:00:23;22.10;99.90
29281;DHT22;25048;49.590;11.026;2023-07-20T08:02:51;22.10;99.90
29281;DHT22;25048;49.590;11.026;2023-07-20T08:05:18;22.10;99.90
29281;DHT22;25048;49.590;11.026;2023-07-20T08:07:46;22.00;99.90
29281;DHT22;25048;49.590;11.026;2023-07-20T08:10:13;21.80;99.90
29281;DHT22;25048;49.590;11.026;2023-07-20T08:12:41;21.80;99.90
29281;DHT22;25048;49.590;11.026;2023-07-20T08:15:10;21.70;99.90
29281;DHT22;25048;49.590;11.026;2023-07-20T08:17:37;21.80;99.90
29281;DHT22;25048;49.590;11.026;2023-07-20T08:20:05;22.10;99.90
29281;DHT22;25048;49.590;11.026;2023-07-20T08:22:33;22.50;99.90
29281;DHT22;25048;49.590;11.026;2023-07-20T08:25:00;22.70;99.90
29281;DHT22;25048;49.590;11.026;2023-07-20T08:27:28;22.90;99.90
29281;DHT22;25048;49.590;11.026;2023-07-20T08:29:56;22.90;99.90
29281;DHT22;25048;49.590;11.026;2023-07-20T08:32:23;22.70;99.90
29281;DHT22;25048;49.590;11.026;2023-07-20T08:34:51;22.50;99.90
29281;DHT22;25048;49.590;11.026;2023-07-20T08:37:18;22.20;99.90
29281;DHT22;25048;49.590;11.026;2023-07-20T08:39:46;22.10;99.90
29281;DHT22;25048;49.590;11.026;2023-07-20T08:42:15;22.00;99.90
29281;DHT22;25048;49.590;11.026;2023-07-20T08:44:44;22.00;99.90
29281;DHT22;25048;49.590;11.026;2023-07-20T08:47:13;22.20;99.90
29281;DHT22;25048;49.590;11.026;2023-07-20T08:49:43;22.40;99.90
29281;DHT22;25048;49.590;11.026;2023-07-20T08:52:12;22.80;99.90
29281;DHT22;25048;49.590;11.026;2023-07-20T08:54:39;23.10;99.90
29281;DHT22;25048;49.590;11.026;2023-07-20T08:57:07;23.10;99.90
29281;DHT22;25048;49.590;11.026;2023-07-20T08:59:37;22.90;99.90
29281;DHT22;25048;49.590;11.026;2023-07-20T09:02:06;22.80;99.90
29281;DHT22;25048;49.590;11.026;2023-07-20T09:04:35;23.00;99.90
29281;DHT22;25048;49.590;11.026;2023-07-20T09:07:03;23.20;99.90
29281;DHT22;25048;49.590;11.026;2023-07-20T09:09:30;23.60;99.90
29281;DHT22;25048;49.590;11.026;2023-07-20T09:11:58;24.10;99.90
29281;DHT22;25048;49.590;11.026;2023-07-20T09:14:25;24.40;99.90
29281;DHT22;25048;49.590;11.026;2023-07-20T09:16:54;24.80;99.90
29281;DHT22;25048;49.590;11.026;2023-07-20T09:19:22;24.90;99.30
29281;DHT22;25048;49.590;11.026;2023-07-20T09:21:51;24.70;99.90
29281;DHT22;25048;49.590;11.026;2023-07-20T09:24:20;24.40;98.40
29281;DHT22;25048;49.590;11.026;2023-07-20T09:26:48;23.90;99.20
29281;DHT22;25048;49.590;11.026;2023-07-20T09:29:20;23.70;99.60
29281;DHT22;25048;49.590;11.026;2023-07-20T09:32:01;23.70;99.90
29281;DHT22;25048;49.590;11.026;2023-07-20T09:34:30;23.50;98.90
29281;DHT22;25048;49.590;11.026;2023-07-20T09:36:59;23.70;99.70
29281;DHT22;25048;49.590;11.026;2023-07-20T09:39:27;24.00;97.10
29281;DHT22;25048;49.590;11.026;2023-07-20T09:42:00;24.10;97.60
29281;DHT22;25048;49.590;11.026;2023-07-20T09:44:28;24.10;97.80
29281;DHT22;25048;49.590;11.026;2023-07-20T09:46:56;24.10;97.00
29281;DHT22;25048;49.590;11.026;2023-07-20T09:49:23;24.00;97.20
29281;DHT22;25048;49.590;11.026;2023-07-20T09:51:53;24.20;96.50
29281;DHT22;25048;49.590;11.026;2023-07-20T09:54:22;24.40;96.40
29281;DHT22;25048;49.590;11.026;2023-07-20T09:56:51;24.80;97.50
29281;DHT22;25048;49.590;11.026;2023-07-20T09:59:19;24.90;95.30
29281;DHT22;25048;49.590;11.026;2023-07-20T10:01:46;24.70;93.90
29281;DHT22;25048;49.590;11.026;2023-07-20T10:04:16;24.70;93.50
29281;DHT22;25048;49.590;11.026;2023-07-20T10:06:46;25.00;93.60
29281;DHT22;25048;49.590;11.026;2023-07-20T10:09:15;25.40;93.40
29281;DHT22;25048;49.590;11.026;2023-07-20T10:11:45;25.70;92.60
29281;DHT22;25048;49.590;11.026;2023-07-20T10:14:16;25.50;90.90
29281;DHT22;25048;49.590;11.026;2023-07-20T10:16:55;25.10;90.60
29281;DHT22;25048;49.590;11.026;2023-07-20T10:19:23;25.10;91.40
29281;DHT22;25048;49.590;11.026;2023-07-20T10:22:00;25.40;90.90
29281;DHT22;25048;49.590;11.026;2023-07-20T10:24:26;25.70;91.00
29281;DHT22;25048;49.590;11.026;2023-07-20T10:26:58;26.00;89.00
29281;DHT22;25048;49.590;11.026;2023-07-20T10:29:26;26.30;88.20
29281;DHT22;25048;49.590;11.026;2023-07-20T10:31:55;26.60;87.00
29281;DHT22;25048;49.590;11.026;2023-07-20T10:34:23;26.80;84.50
29281;DHT22;25048;49.590;11.026;2023-07-20T10:36:51;26.90;82.00
29281;DHT22;25048;49.590;11.026;2023-07-20T10:39:28;27.00;82.50
29281;DHT22;25048;49.590;11.026;2023-07-20T10:42:10;27.10;81.50
29281;DHT22;25048;49.590;11.026;2023-07-20T10:44:38;27.00;78.80
29281;DHT22;25048;49.590;11.026;2023-07-20T10:47:10;26.90;78.70
29281;DHT22;25048;49.590;11.026;2023-07-20T10:49:58;27.10;78.30
29281;DHT22;25048;49.590;11.026;2023-07-20T10:52:41;27.20;80.20
29281;DHT22;25048;49.590;11.026;2023-07-20T10:55:16;27.30;79.10
29281;DHT22;25048;49.590;11.026;2023-07-20T10:58:00;27.30;78.20
29281;DHT22;25048;49.590;11.026;2023-07-20T11:00:15;27.20;77.40
29281;DHT22;25048;49.590;11.026;2023-07-20T11:02:48;26.90;78.00
29281;DHT22;25048;49.590;11.026;2023-07-20T11:05:35;26.90;79.30
29281;DHT22;25048;49.590;11.026;2023-07-20T11:08:05;26.70;77.00
29281;DHT22;25048;49.590;11.026;2023-07-20T11:10:33;26.30;80.00
29281;DHT22;25048;49.590;11.026;2023-07-20T11:13:20;26.10;78.90
29281;DHT22;25048;49.590;11.026;2023-07-20T11:18:26;25.70;81.50
29281;DHT22;25048;49.590;11.026;2023-07-20T11:20:54;25.60;80.60
29281;DHT22;25048;49.590;11.026;2023-07-20T11:23:22;25.40;80.90
29281;DHT22;25048;49.590;11.026;2023-07-20T11:25:50;25.20;81.90
29281;DHT22;25048;49.590;11.026;2023-07-20T11:28:17;25.10;83.90
29281;DHT22;25048;49.590;11.026;2023-07-20T11:30:45;25.00;84.40
29281;DHT22;25048;49.590;11.026;2023-07-20T11:33:14;25.10;86.10
29281;DHT22;25048;49.590;11.026;2023-07-20T11:35:45;25.30;85.40
29281;DHT22;25048;49.590;11.026;2023-07-20T11:38:14;25.20;84.80
29281;DHT22;25048;49.590;11.026;2023-07-20T11:40:45;25.10;84.60
29281;DHT22;25048;49.590;11.026;2023-07-20T11:43:13;25.20;88.00
29281;DHT22;25048;49.590;11.026;2023-07-20T11:45:45;25.50;88.40
29281;DHT22;25048;49.590;11.026;2023-07-20T11:48:17;25.90;84.80
29281;DHT22;25048;49.590;11.026;2023-07-20T11:50:44;26.40;85.10
29281;DHT22;25048;49.590;11.026;2023-07-20T11:53:14;26.70;81.10
29281;DHT22;25048;49.590;11.026;2023-07-20T11:55:41;27.00;80.30
29281;DHT22;25048;49.590;11.026;2023-07-20T11:58:10;27.10;77.10
29281;DHT22;25048;49.590;11.026;2023-07-20T12:00:39;26.80;77.00
29281;DHT22;25048;49.590;11.026;2023-07-20T12:03:07;26.60;77.30
29281;DHT22;25048;49.590;11.026;2023-07-20T12:05:35;26.40;76.00
29281;DHT22;25048;49.590;11.026;2023-07-20T12:08:03;26.70;74.20
29281;DHT22;25048;49.590;11.026;2023-07-20T12:10:31;27.00;70.40
29281;DHT22;25048;49.590;11.026;2023-07-20T12:13:02;26.90;68.90
29281;DHT22;25048;49.590;11.026;2023-07-20T12:15:33;26.70;70.50
29281;DHT22;25048;49.590;11.026;2023-07-20T12:18:02;26.40;70.30
29281;DHT22;25048;49.590;11.026;2023-07-20T12:20:35;26.20;70.60
29281;DHT22;25048;49.590;11.026;2023-07-20T12:23:11;26.40;72.70
29281;DHT22;25048;49.590;11.026;2023-07-20T12:25:40;26.90;75.70
29281;DHT22;25048;49.590;11.026;2023-07-20T12:28:10;27.50;74.00
29281;DHT22;25048;49.590;11.026;2023-07-20T12:30:39;27.80;76.50
29281;DHT22;25048;49.590;11.026;2023-07-20T12:33:07;28.20;72.60
29281;DHT22;25048;49.590;11.026;2023-07-20T12:35:35;28.50;73.40
29281;DHT22;25048;49.590;11.026;2023-07-20T12:38:02;28.80;70.90
29281;DHT22;25048;49.590;11.026;2023-07-20T12:40:30;29.00;68.00
29281;DHT22;25048;49.590;11.026;2023-07-20T12:42:58;29.00;64.70
29281;DHT22;25048;49.590;11.026;2023-07-20T12:45:25;29.00;64.30
29281;DHT22;25048;49.590;11.026;2023-07-20T12:47:53;29.00;65.40
29281;DHT22;25048;49.590;11.026;2023-07-20T12:50:20;28.90;64.20
29281;DHT22;25048;49.590;11.026;2023-07-20T12:52:48;29.00;63.40
29281;DHT22;25048;49.590;11.026;2023-07-20T12:55:16;29.10;64.50
29281;DHT22;25048;49.590;11.026;2023-07-20T12:57:45;29.30;63.80
29281;DHT22;25048;49.590;11.026;2023-07-20T13:00:14;29.40;62.10
29281;DHT22;25048;49.590;11.026;2023-07-20T13:02:42;29.50;63.80
29281;DHT22;25048;49.590;11.026;2023-07-20T13:05:10;29.60;65.20
29281;DHT22;25048;49.590;11.026;2023-07-20T13:07:39;29.30;63.30
29281;DHT22;25048;49.590;11.026;2023-07-20T13:10:08;29.10;62.30
29281;DHT22;25048;49.590;11.026;2023-07-20T13:12:37;29.10;64.30
29281;DHT22;25048;49.590;11.026;2023-07-20T13:15:06;29.20;65.00
29281;DHT22;25048;49.590;11.026;2023-07-20T13:17:42;29.30;64.90
29281;DHT22;25048;49.590;11.026;2023-07-20T13:20:07;28.80;62.30
29281;DHT22;25048;49.590;11.026;2023-07-20T13:22:37;28.40;64.10
29281;DHT22;25048;49.590;11.026;2023-07-20T13:25:05;28.10;65.50
29281;DHT22;25048;49.590;11.026;2023-07-20T13:27:38;28.30;64.50
29281;DHT22;25048;49.590;11.026;2023-07-20T13:30:06;28.60;65.20
29281;DHT22;25048;49.590;11.026;2023-07-20T13:32:37;28.50;62.30
29281;DHT22;25048;49.590;11.026;2023-07-20T13:35:11;28.20;63.70
29281;DHT22;25048;49.590;11.026;2023-07-20T13:37:43;28.00;65.70
29281;DHT22;25048;49.590;11.026;2023-07-20T13:40:14;28.40;66.00
29281;DHT22;25048;49.590;11.026;2023-07-20T13:42:43;28.80;64.60
29281;DHT22;25048;49.590;11.026;2023-07-20T13:45:11;29.20;63.00
29281;DHT22;25048;49.590;11.026;2023-07-20T13:47:40;29.30;61.50
29281;DHT22;25048;49.590;11.026;2023-07-20T13:50:08;29.30;63.00
29281;DHT22;25048;49.590;11.026;2023-07-20T13:52:37;29.50;62.10
29281;DHT22;25048;49.590;11.026;2023-07-20T13:55:05;29.60;61.20
29281;DHT22;25048;49.590;11.026;2023-07-20T13:57:32;29.80;59.70
29281;DHT22;25048;49.590;11.026;2023-07-20T14:00:00;30.10;59.90
29281;DHT22;25048;49.590;11.026;2023-07-20T14:02:30;30.40;59.70
29281;DHT22;25048;49.590;11.026;2023-07-20T14:04:57;30.60;57.20
29281;DHT22;25048;49.590;11.026;2023-07-20T14:07:26;30.80;57.80
29281;DHT22;25048;49.590;11.026;2023-07-20T14:09:53;30.90;56.90
29281;DHT22;25048;49.590;11.026;2023-07-20T14:12:21;30.90;57.90
29281;DHT22;25048;49.590;11.026;2023-07-20T14:14:49;30.90;59.80
29281;DHT22;25048;49.590;11.026;2023-07-20T14:17:16;31.10;58.90
29281;DHT22;25048;49.590;11.026;2023-07-20T14:19:44;31.30;59.20
29281;DHT22;25048;49.590;11.026;2023-07-20T14:22:12;31.50;57.60
29281;DHT22;25048;49.590;11.026;2023-07-20T14:24:39;31.60;56.60
29281;DHT22;25048;49.590;11.026;2023-07-20T14:27:07;31.70;57.80
29281;DHT22;25048;49.590;11.026;2023-07-20T14:29:34;31.90;55.40
29281;DHT22;25048;49.590;11.026;2023-07-20T14:32:03;31.90;56.90
29281;DHT22;25048;49.590;11.026;2023-07-20T14:34:35;31.60;54.20
29281;DHT22;25048;49.590;11.026;2023-07-20T14:37:03;31.20;57.60
29281;DHT22;25048;49.590;11.026;2023-07-20T14:39:30;31.20;56.70
29281;DHT22;25048;49.590;11.026;2023-07-20T14:41:58;31.20;56.10
29281;DHT22;25048;49.590;11.026;2023-07-20T14:44:26;31.20;54.80
29281;DHT22;25048;49.590;11.026;2023-07-20T14:46:53;31.10;54.50
29281;DHT22;25048;49.590;11.026;2023-07-20T14:49:21;31.10;55.20
29281;DHT22;25048;49.590;11.026;2023-07-20T14:51:49;31.30;53.90
29281;DHT22;25048;49.590;11.026;2023-07-20T14:54:16;31.50;54.30
29281;DHT22;25048;49.590;11.026;2023-07-20T14:56:51;31.70;58.00
29281;DHT22;25048;49.590;11.026;2023-07-20T14:59:22;32.00;54.60
29281;DHT22;25048;49.590;11.026;2023-07-20T15:01:50;32.20;54.00
29281;DHT22;25048;49.590;11.026;2023-07-20T15:04:18;32.40;51.30
29281;DHT22;25048;49.590;11.026;2023-07-20T15:06:46;32.50;53.50
29281;DHT22;25048;49.590;11.026;2023-07-20T15:09:17;32.70;53.30
29281;DHT22;25048;49.590;11.026;2023-07-20T15:11:44;32.90;51.80
29281;DHT22;25048;49.590;11.026;2023-07-20T15:14:12;33.00;52.30
29281;DHT22;25048;49.590;11.026;2023-07-20T15:16:39;32.90;52.40
29281;DHT22;25048;49.590;11.026;2023-07-20T15:19:08;32.80;51.60
29281;DHT22;25048;49.590;11.026;2023-07-20T15:21:38;32.10;50.60
29281;DHT22;25048;49.590;11.026;2023-07-20T15:24:05;31.10;52.00
29281;DHT22;25048;49.590;11.026;2023-07-20T15:26:33;30.40;53.60
29281;DHT22;25048;49.590;11.026;2023-07-20T15:29:01;30.40;54.20
29281;DHT22;25048;49.590;11.026;2023-07-20T15:31:29;30.60;54.80